sensor_id;sensor_type;location;lat;lon;timestamp;pressure;altitude;pressure_sealevel;temperature;humidity
68873;BME280;55907;50.806;12.882;2022-11-15T00:01:28;972.7;;;8.0;76.7
68873;BME280;55907;50.806;12.882;2022-11-15T00:04:30;972.7;;;7.9;76.6
68873;BME280;55907;50.806;12.882;2022-11-15T00:07:31;972.6;;;7.8;77.1
68873;BME280;55907;50.806;12.882;2022-11-15T00:10:33;972.6;;;7.7;77.7
68873;BME280;55907;50.806;12.882;2022-11-15T00:13:34;972.6;;;7.6;78.1
68873;BME280;55907;50.806;12.882;2022-11-15T00:16:36;972.5;;;7.6;78.4
68873;BME280;55907;50.806;12.882;2022-11-15T00:19:37;972.5;;;7.6;78.4
68873;BME280;55907;50.806;12.882;2022-11-15T00:22:39;972.6;;;7.6;78.3
68873;BME280;55907;50.806;12.882;2022-11-15T00:25:40;972.5;;;7.7;78.1
68873;BME280;55907;50.806;12.882;2022-11-15T00:28:42;972.5;;;7.7;78.1
68873;BME280;55907;50.806;12.882;2022-11-15T00:31:43;972.5;;;7.6;78.4
68873;BME280;55907;50.806;12.882;2022-11-15T00:34:45;972.5;;;7.6;78.4
68873;BME280;55907;50.806;12.882;2022-11-15T00:37:47;972.5;;;7.5;78.6
68873;BME280;55907;50.806;12.882;2022-11-15T00:40:48;972.5;;;7.5;78.8
68873;BME280;55907;50.806;12.882;2022-11-15T00:43:50;972.5;;;7.5;79.3
68873;BME280;55907;50.806;12.882;2022-11-15T00:46:51;972.5;;;7.5;79.6
68873;BME280;55907;50.806;12.882;2022-11-15T00:49:53;972.5;;;7.6;79.4
68873;BME280;55907;50.806;12.882;2022-11-15T00:52:54;972.5;;;7.7;79.1
68873;BME280;55907;50.806;12.882;2022-11-15T00:55:56;972.5;;;7.8;78.4
68873;BME280;55907;50.806;12.882;2022-11-15T00:58:57;972.5;;;7.8;77.6
68873;BME280;55907;50.806;12.882;2022-11-15T01:01:59;972.5;;;7.9;77.7
68873;BME280;55907;50.806;12.882;2022-11-15T01:05:00;972.4;;;7.9;77.8
68873;BME280;55907;50.806;12.882;2022-11-15T01:08:02;972.4;;;8.0;77.5
68873;BME280;55907;50.806;12.882;2022-11-15T01:11:05;972.3;;;8.2;76.9
68873;BME280;55907;50.806;12.882;2022-11-15T01:14:05;972.3;;;8.3;76.3
68873;BME280;55907;50.806;12.882;2022-11-15T01:17:06;972.3;;;8.4;75.6
68873;BME280;55907;50.806;12.882;2022-11-15T01:20:09;972.2;;;8.4;75.4
68873;BME280;55907;50.806;12.882;2022-11-15T01:23:09;972.2;;;8.4;74.8
68873;BME280;55907;50.806;12.882;2022-11-15T01:26:13;972.2;;;8.3;75.3
68873;BME280;55907;50.806;12.882;2022-11-15T01:29:13;972.1;;;8.2;75.7
68873;BME280;55907;50.806;12.882;2022-11-15T01:32:14;972.0;;;8.1;75.9
68873;BME280;55907;50.806;12.882;2022-11-15T01:35:16;972.0;;;8.2;75.4
68873;BME280;55907;50.806;12.882;2022-11-15T01:38:17;971.9;;;8.1;75.6
68873;BME280;55907;50.806;12.882;2022-11-15T01:41:21;971.9;;;8.1;75.7
68873;BME280;55907;50.806;12.882;2022-11-15T01:44:36;971.9;;;8.0;76.1
68873;BME280;55907;50.806;12.882;2022-11-15T01:47:24;972.0;;;8.0;76.4
68873;BME280;55907;50.806;12.882;2022-11-15T01:50:26;972.0;;;7.9;76.6
68873;BME280;55907;50.806;12.882;2022-11-15T01:53:25;971.9;;;7.9;76.8
68873;BME280;55907;50.806;12.882;2022-11-15T01:56:29;971.9;;;8.0;76.3
68873;BME280;55907;50.806;12.882;2022-11-15T01:59:28;971.8;;;8.1;76.0
68873;BME280;55907;50.806;12.882;2022-11-15T02:02:29;971.8;;;8.1;76.4
68873;BME280;55907;50.806;12.882;2022-11-15T02:05:31;971.7;;;8.2;76.4
68873;BME280;55907;50.806;12.882;2022-11-15T02:08:32;971.8;;;8.3;75.6
68873;BME280;55907;50.806;12.882;2022-11-15T02:11:34;971.8;;;8.3;75.6
68873;BME280;55907;50.806;12.882;2022-11-15T02:14:36;971.8;;;8.3;75.4
68873;BME280;55907;50.806;12.882;2022-11-15T02:17:54;971.8;;;8.2;75.3
68873;BME280;55907;50.806;12.882;2022-11-15T02:20:44;971.8;;;8.0;74.5
68873;BME280;55907;50.806;12.882;2022-11-15T02:26:57;971.7;;;7.7;75.9
68873;BME280;55907;50.806;12.882;2022-11-15T02:30:04;971.7;;;7.6;76.5
68873;BME280;55907;50.806;12.882;2022-11-15T02:32:48;971.7;;;7.5;76.7
68873;BME280;55907;50.806;12.882;2022-11-15T02:35:51;971.7;;;7.4;78.4
68873;BME280;55907;50.806;12.882;2022-11-15T02:38:53;971.6;;;7.4;77.0
68873;BME280;55907;50.806;12.882;2022-11-15T02:41:54;971.6;;;7.3;77.0
68873;BME280;55907;50.806;12.882;2022-11-15T02:44:52;971.6;;;7.2;78.9
68873;BME280;55907;50.806;12.882;2022-11-15T02:47:54;971.5;;;7.2;79.4
68873;BME280;55907;50.806;12.882;2022-11-15T02:50:54;971.5;;;7.2;78.2
68873;BME280;55907;50.806;12.882;2022-11-15T02:53:55;971.5;;;7.2;77.7
68873;BME280;55907;50.806;12.882;2022-11-15T02:57:00;971.4;;;7.1;79.6
68873;BME280;55907;50.806;12.882;2022-11-15T03:00:04;971.5;;;7.1;79.3
68873;BME280;55907;50.806;12.882;2022-11-15T03:03:08;971.5;;;7.1;80.3
68873;BME280;55907;50.806;12.882;2022-11-15T03:06:09;971.5;;;7.1;79.0
68873;BME280;55907;50.806;12.882;2022-11-15T03:09:05;971.5;;;7.1;80.1
68873;BME280;55907;50.806;12.882;2022-11-15T03:12:08;971.5;;;7.1;80.1
68873;BME280;55907;50.806;12.882;2022-11-15T03:15:09;971.4;;;7.1;79.5
68873;BME280;55907;50.806;12.882;2022-11-15T03:18:12;971.4;;;7.1;79.9
68873;BME280;55907;50.806;12.882;2022-11-15T03:21:11;971.4;;;7.0;80.3
68873;BME280;55907;50.806;12.882;2022-11-15T03:24:12;971.3;;;7.0;80.0
68873;BME280;55907;50.806;12.882;2022-11-15T03:27:14;971.4;;;7.0;79.8
68873;BME280;55907;50.806;12.882;2022-11-15T03:30:14;971.3;;;7.0;80.2
68873;BME280;55907;50.806;12.882;2022-11-15T03:33:16;971.3;;;7.1;80.1
68873;BME280;55907;50.806;12.882;2022-11-15T03:36:17;971.3;;;7.1;80.0
68873;BME280;55907;50.806;12.882;2022-11-15T03:39:19;971.3;;;7.1;80.0
68873;BME280;55907;50.806;12.882;2022-11-15T03:45:23;971.3;;;7.1;80.1
68873;BME280;55907;50.806;12.882;2022-11-15T03:48:25;971.3;;;7.0;80.6
68873;BME280;55907;50.806;12.882;2022-11-15T03:51:24;971.4;;;7.1;80.7
68873;BME280;55907;50.806;12.882;2022-11-15T03:54:26;971.3;;;7.1;80.6
68873;BME280;55907;50.806;12.882;2022-11-15T03:57:28;971.3;;;7.2;80.4
68873;BME280;55907;50.806;12.882;2022-11-15T04:03:30;971.3;;;7.2;80.8
68873;BME280;55907;50.806;12.882;2022-11-15T04:06:32;971.3;;;7.3;80.2
68873;BME280;55907;50.806;12.882;2022-11-15T04:09:33;971.3;;;7.3;80.2
68873;BME280;55907;50.806;12.882;2022-11-15T04:12:37;971.3;;;7.3;79.9
68873;BME280;55907;50.806;12.882;2022-11-15T04:15:37;971.3;;;7.3;79.8
68873;BME280;55907;50.806;12.882;2022-11-15T04:18:38;971.4;;;7.3;80.7
68873;BME280;55907;50.806;12.882;2022-11-15T04:21:40;971.4;;;7.3;80.5
68873;BME280;55907;50.806;12.882;2022-11-15T04:24:41;971.4;;;7.3;80.3
68873;BME280;55907;50.806;12.882;2022-11-15T04:27:43;971.4;;;7.2;80.4
68873;BME280;55907;50.806;12.882;2022-11-15T04:30:44;971.3;;;7.2;80.8
68873;BME280;55907;50.806;12.882;2022-11-15T04:33:46;971.4;;;7.2;81.0
68873;BME280;55907;50.806;12.882;2022-11-15T04:36:47;971.4;;;7.1;81.1
68873;BME280;55907;50.806;12.882;2022-11-15T04:39:49;971.3;;;7.1;80.7
68873;BME280;55907;50.806;12.882;2022-11-15T04:42:51;971.3;;;7.1;80.8
68873;BME280;55907;50.806;12.882;2022-11-15T04:45:52;971.3;;;7.0;81.3
68873;BME280;55907;50.806;12.882;2022-11-15T04:48:54;971.2;;;6.9;81.8
68873;BME280;55907;50.806;12.882;2022-11-15T04:51:55;971.2;;;7.0;81.4
68873;BME280;55907;50.806;12.882;2022-11-15T04:54:57;971.1;;;6.9;82.2
68873;BME280;55907;50.806;12.882;2022-11-15T04:57:58;971.1;;;6.9;82.7
68873;BME280;55907;50.806;12.882;2022-11-15T05:01:06;971.1;;;6.9;83.1
68873;BME280;55907;50.806;12.882;2022-11-15T05:04:01;971.0;;;7.0;82.0
68873;BME280;55907;50.806;12.882;2022-11-15T05:07:03;971.1;;;7.0;81.8
68873;BME280;55907;50.806;12.882;2022-11-15T05:10:04;971.0;;;7.0;82.3
68873;BME280;55907;50.806;12.882;2022-11-15T05:13:06;971.1;;;7.0;81.5
68873;BME280;55907;50.806;12.882;2022-11-15T05:16:07;971.1;;;6.9;82.1
68873;BME280;55907;50.806;12.882;2022-11-15T05:19:09;971.0;;;7.0;81.6
68873;BME280;55907;50.806;12.882;2022-11-15T05:22:10;971.0;;;7.0;82.1
68873;BME280;55907;50.806;12.882;2022-11-15T05:25:12;971.0;;;7.1;81.9
68873;BME280;55907;50.806;12.882;2022-11-15T05:28:14;970.9;;;7.3;81.5
68873;BME280;55907;50.806;12.882;2022-11-15T05:31:15;970.9;;;7.7;79.5
68873;BME280;55907;50.806;12.882;2022-11-15T05:34:17;970.8;;;7.9;78.4
68873;BME280;55907;50.806;12.882;2022-11-15T05:37:18;970.8;;;8.1;77.4
68873;BME280;55907;50.806;12.882;2022-11-15T05:40:20;970.8;;;8.3;76.4
68873;BME280;55907;50.806;12.882;2022-11-15T05:43:22;970.9;;;8.4;75.8
68873;BME280;55907;50.806;12.882;2022-11-15T05:46:23;970.7;;;8.5;75.5
68873;BME280;55907;50.806;12.882;2022-11-15T05:49:27;970.8;;;8.5;75.4
68873;BME280;55907;50.806;12.882;2022-11-15T05:52:30;970.7;;;8.5;75.3
68873;BME280;55907;50.806;12.882;2022-11-15T05:55:27;970.7;;;8.4;75.1
68873;BME280;55907;50.806;12.882;2022-11-15T05:58:30;970.7;;;8.4;75.2
68873;BME280;55907;50.806;12.882;2022-11-15T06:01:30;970.7;;;8.4;75.2
68873;BME280;55907;50.806;12.882;2022-11-15T06:04:32;970.7;;;8.3;75.4
68873;BME280;55907;50.806;12.882;2022-11-15T06:07:33;970.7;;;8.2;75.6
68873;BME280;55907;50.806;12.882;2022-11-15T06:10:35;970.7;;;8.2;75.4
68873;BME280;55907;50.806;12.882;2022-11-15T06:13:36;970.7;;;8.2;75.4
68873;BME280;55907;50.806;12.882;2022-11-15T06:16:38;970.7;;;8.2;75.5
68873;BME280;55907;50.806;12.882;2022-11-15T06:19:39;970.8;;;8.2;75.3
68873;BME280;55907;50.806;12.882;2022-11-15T06:22:41;970.8;;;8.1;75.4
68873;BME280;55907;50.806;12.882;2022-11-15T06:25:43;970.8;;;8.1;75.5
68873;BME280;55907;50.806;12.882;2022-11-15T06:28:44;970.8;;;8.0;75.9
68873;BME280;55907;50.806;12.882;2022-11-15T06:31:46;970.8;;;8.0;75.7
68873;BME280;55907;50.806;12.882;2022-11-15T06:34:47;970.8;;;8.0;75.6
68873;BME280;55907;50.806;12.882;2022-11-15T06:37:49;970.9;;;8.0;75.6
68873;BME280;55907;50.806;12.882;2022-11-15T06:40:50;970.9;;;8.0;75.4
68873;BME280;55907;50.806;12.882;2022-11-15T06:43:52;970.9;;;8.0;75.3
68873;BME280;55907;50.806;12.882;2022-11-15T06:46:53;970.9;;;8.1;74.9
68873;BME280;55907;50.806;12.882;2022-11-15T06:49:55;970.9;;;8.1;74.7
68873;BME280;55907;50.806;12.882;2022-11-15T06:53:00;970.9;;;8.1;74.2
68873;BME280;55907;50.806;12.882;2022-11-15T06:55:59;970.9;;;8.3;73.8
68873;BME280;55907;50.806;12.882;2022-11-15T06:58:59;970.9;;;8.4;72.8
68873;BME280;55907;50.806;12.882;2022-11-15T07:02:01;970.9;;;8.6;72.3
68873;BME280;55907;50.806;12.882;2022-11-15T07:05:02;970.9;;;8.8;71.3
68873;BME280;55907;50.806;12.882;2022-11-15T07:08:04;970.9;;;9.0;70.7
68873;BME280;55907;50.806;12.882;2022-11-15T07:11:07;970.9;;;9.2;69.6
68873;BME280;55907;50.806;12.882;2022-11-15T07:14:07;970.9;;;9.4;68.8
68873;BME280;55907;50.806;12.882;2022-11-15T07:17:08;970.9;;;9.6;68.8
68873;BME280;55907;50.806;12.882;2022-11-15T07:20:11;970.9;;;9.8;68.3
68873;BME280;55907;50.806;12.882;2022-11-15T07:23:11;970.9;;;9.9;67.9
68873;BME280;55907;50.806;12.882;2022-11-15T07:26:13;970.9;;;10.0;67.4
68873;BME280;55907;50.806;12.882;2022-11-15T07:29:14;970.9;;;10.1;67.0
68873;BME280;55907;50.806;12.882;2022-11-15T07:32:16;970.9;;;10.2;66.7
68873;BME280;55907;50.806;12.882;2022-11-15T07:35:17;970.9;;;10.4;66.2
68873;BME280;55907;50.806;12.882;2022-11-15T07:38:19;970.9;;;10.6;65.5
68873;BME280;55907;50.806;12.882;2022-11-15T07:44:22;970.8;;;10.8;64.5
68873;BME280;55907;50.806;12.882;2022-11-15T07:47:23;970.9;;;11.0;64.6
68873;BME280;55907;50.806;12.882;2022-11-15T07:50:26;970.9;;;11.0;64.3
68873;BME280;55907;50.806;12.882;2022-11-15T07:53:26;970.9;;;11.1;64.1
68873;BME280;55907;50.806;12.882;2022-11-15T07:56:28;970.9;;;11.1;64.4
68873;BME280;55907;50.806;12.882;2022-11-15T07:59:30;970.8;;;11.3;63.9
68873;BME280;55907;50.806;12.882;2022-11-15T08:02:31;970.8;;;11.5;62.8
68873;BME280;55907;50.806;12.882;2022-11-15T08:05:33;970.8;;;11.6;62.2
68873;BME280;55907;50.806;12.882;2022-11-15T08:08:34;970.9;;;12.0;61.9
68873;BME280;55907;50.806;12.882;2022-11-15T08:11:35;970.9;;;12.5;60.4
68873;BME280;55907;50.806;12.882;2022-11-15T08:14:37;970.9;;;13.1;59.3
68873;BME280;55907;50.806;12.882;2022-11-15T08:17:38;970.9;;;13.6;58.1
68873;BME280;55907;50.806;12.882;2022-11-15T08:20:40;970.9;;;14.6;56.2
68873;BME280;55907;50.806;12.882;2022-11-15T08:23:41;970.9;;;15.6;54.0
68873;BME280;55907;50.806;12.882;2022-11-15T08:26:43;970.9;;;16.5;51.0
68873;BME280;55907;50.806;12.882;2022-11-15T08:29:44;970.9;;;17.3;47.9
68873;BME280;55907;50.806;12.882;2022-11-15T08:32:46;970.9;;;18.3;44.4
68873;BME280;55907;50.806;12.882;2022-11-15T08:35:48;970.9;;;19.0;43.9
68873;BME280;55907;50.806;12.882;2022-11-15T08:38:48;970.8;;;19.6;40.4
68873;BME280;55907;50.806;12.882;2022-11-15T08:41:50;970.8;;;20.4;39.5
68873;BME280;55907;50.806;12.882;2022-11-15T08:44:51;970.8;;;20.9;37.0
68873;BME280;55907;50.806;12.882;2022-11-15T08:47:53;970.8;;;21.4;36.4
68873;BME280;55907;50.806;12.882;2022-11-15T08:50:54;970.8;;;22.1;35.6
68873;BME280;55907;50.806;12.882;2022-11-15T08:53:55;970.7;;;23.0;35.1
68873;BME280;55907;50.806;12.882;2022-11-15T08:56:57;970.7;;;23.3;35.2
68873;BME280;55907;50.806;12.882;2022-11-15T08:59:58;970.6;;;23.6;34.4
68873;BME280;55907;50.806;12.882;2022-11-15T09:03:03;970.6;;;23.8;31.8
68873;BME280;55907;50.806;12.882;2022-11-15T09:06:01;970.6;;;24.0;31.5
68873;BME280;55907;50.806;12.882;2022-11-15T09:09:02;970.5;;;24.2;32.4
68873;BME280;55907;50.806;12.882;2022-11-15T09:12:05;970.5;;;23.9;31.0
68873;BME280;55907;50.806;12.882;2022-11-15T09:15:06;970.6;;;24.0;30.5
68873;BME280;55907;50.806;12.882;2022-11-15T09:18:06;970.6;;;24.0;31.1
68873;BME280;55907;50.806;12.882;2022-11-15T09:21:09;970.5;;;24.1;29.8
68873;BME280;55907;50.806;12.882;2022-11-15T09:24:09;970.5;;;24.6;30.8
68873;BME280;55907;50.806;12.882;2022-11-15T09:27:10;970.4;;;24.8;29.1
68873;BME280;55907;50.806;12.882;2022-11-15T09:30:12;970.4;;;24.8;29.4
68873;BME280;55907;50.806;12.882;2022-11-15T09:33:13;970.4;;;24.7;28.4
68873;BME280;55907;50.806;12.882;2022-11-15T09:36:14;970.5;;;24.9;29.0
68873;BME280;55907;50.806;12.882;2022-11-15T09:39:16;970.4;;;25.4;28.9
68873;BME280;55907;50.806;12.882;2022-11-15T09:42:25;970.4;;;25.5;28.9
68873;BME280;55907;50.806;12.882;2022-11-15T09:45:22;970.4;;;25.6;28.5
68873;BME280;55907;50.806;12.882;2022-11-15T09:48:29;970.4;;;25.6;28.4
68873;BME280;55907;50.806;12.882;2022-11-15T09:51:27;970.3;;;25.6;28.5
68873;BME280;55907;50.806;12.882;2022-11-15T09:54:27;970.3;;;25.5;28.6
68873;BME280;55907;50.806;12.882;2022-11-15T09:57:30;970.3;;;25.2;28.6
68873;BME280;55907;50.806;12.882;2022-11-15T10:00:32;970.2;;;25.6;28.7
68873;BME280;55907;50.806;12.882;2022-11-15T10:03:30;970.2;;;26.0;28.9
68873;BME280;55907;50.806;12.882;2022-11-15T10:06:29;970.2;;;26.2;28.5
68873;BME280;55907;50.806;12.882;2022-11-15T10:09:36;970.1;;;26.3;28.6
68873;BME280;55907;50.806;12.882;2022-11-15T10:12:31;970.2;;;26.6;28.3
68873;BME280;55907;50.806;12.882;2022-11-15T10:15:33;970.1;;;26.7;28.1
68873;BME280;55907;50.806;12.882;2022-11-15T10:18:35;970.1;;;26.9;27.9
68873;BME280;55907;50.806;12.882;2022-11-15T10:21:40;970.1;;;27.2;27.6
68873;BME280;55907;50.806;12.882;2022-11-15T10:24:39;970.1;;;27.3;27.5
68873;BME280;55907;50.806;12.882;2022-11-15T10:27:38;970.0;;;27.2;27.7
68873;BME280;55907;50.806;12.882;2022-11-15T10:30:41;970.0;;;27.1;27.8
68873;BME280;55907;50.806;12.882;2022-11-15T10:33:40;969.9;;;27.2;27.7
68873;BME280;55907;50.806;12.882;2022-11-15T10:36:44;969.9;;;27.2;27.5
68873;BME280;55907;50.806;12.882;2022-11-15T10:39:43;969.8;;;27.0;26.3
68873;BME280;55907;50.806;12.882;2022-11-15T10:42:44;969.8;;;26.7;26.3
68873;BME280;55907;50.806;12.882;2022-11-15T10:48:47;969.7;;;27.4;25.7
68873;BME280;55907;50.806;12.882;2022-11-15T10:51:49;969.6;;;27.3;26.8
68873;BME280;55907;50.806;12.882;2022-11-15T10:54:52;969.6;;;27.0;25.1
68873;BME280;55907;50.806;12.882;2022-11-15T11:00:53;969.6;;;27.0;25.5
68873;BME280;55907;50.806;12.882;2022-11-15T11:03:59;969.6;;;26.8;25.0
68873;BME280;55907;50.806;12.882;2022-11-15T11:06:56;969.5;;;26.0;25.6
68873;BME280;55907;50.806;12.882;2022-11-15T11:13:19;969.5;;;26.2;25.8
68873;BME280;55907;50.806;12.882;2022-11-15T11:16:17;969.4;;;26.1;25.6
68873;BME280;55907;50.806;12.882;2022-11-15T11:19:07;969.3;;;25.7;25.7
68873;BME280;55907;50.806;12.882;2022-11-15T11:22:05;969.3;;;25.5;26.5
68873;BME280;55907;50.806;12.882;2022-11-15T11:25:08;969.4;;;25.3;27.2
68873;BME280;55907;50.806;12.882;2022-11-15T11:28:18;969.3;;;25.4;27.3
68873;BME280;55907;50.806;12.882;2022-11-15T11:31:16;969.3;;;25.3;26.5
68873;BME280;55907;50.806;12.882;2022-11-15T11:34:14;969.2;;;24.9;27.0
68873;BME280;55907;50.806;12.882;2022-11-15T11:37:12;969.1;;;24.3;27.9
68873;BME280;55907;50.806;12.882;2022-11-15T11:40:16;969.1;;;24.3;28.1
68873;BME280;55907;50.806;12.882;2022-11-15T11:43:18;969.0;;;24.8;27.9
68873;BME280;55907;50.806;12.882;2022-11-15T11:46:18;968.9;;;24.6;28.5
68873;BME280;55907;50.806;12.882;2022-11-15T11:52:17;968.8;;;24.2;29.5
68873;BME280;55907;50.806;12.882;2022-11-15T11:55:20;968.8;;;24.0;29.9
68873;BME280;55907;50.806;12.882;2022-11-15T11:58:21;968.8;;;23.8;30.6
68873;BME280;55907;50.806;12.882;2022-11-15T12:01:23;968.8;;;23.5;30.8
68873;BME280;55907;50.806;12.882;2022-11-15T12:04:24;968.7;;;23.3;31.2
68873;BME280;55907;50.806;12.882;2022-11-15T12:07:24;968.7;;;23.1;31.5
68873;BME280;55907;50.806;12.882;2022-11-15T12:10:25;968.7;;;22.9;31.7
68873;BME280;55907;50.806;12.882;2022-11-15T12:13:26;968.8;;;22.2;32.7
68873;BME280;55907;50.806;12.882;2022-11-15T12:16:27;968.8;;;21.9;33.1
68873;BME280;55907;50.806;12.882;2022-11-15T12:19:28;968.7;;;21.8;33.1
68873;BME280;55907;50.806;12.882;2022-11-15T12:22:39;968.6;;;21.4;33.8
68873;BME280;55907;50.806;12.882;2022-11-15T12:25:33;968.6;;;21.0;34.5
68873;BME280;55907;50.806;12.882;2022-11-15T12:28:37;968.5;;;20.7;35.0
68873;BME280;55907;50.806;12.882;2022-11-15T12:31:36;968.5;;;20.4;35.6
68873;BME280;55907;50.806;12.882;2022-11-15T12:34:38;968.5;;;20.4;35.6
68873;BME280;55907;50.806;12.882;2022-11-15T12:37:47;968.5;;;20.3;35.8
68873;BME280;55907;50.806;12.882;2022-11-15T12:40:38;968.4;;;20.3;36.2
68873;BME280;55907;50.806;12.882;2022-11-15T12:43:39;968.4;;;20.2;36.2
68873;BME280;55907;50.806;12.882;2022-11-15T12:49:43;968.3;;;19.8;37.4
68873;BME280;55907;50.806;12.882;2022-11-15T12:58:47;968.2;;;19.3;38.9
68873;BME280;55907;50.806;12.882;2022-11-15T13:01:58;968.2;;;19.3;39.3
68873;BME280;55907;50.806;12.882;2022-11-15T13:04:48;968.1;;;19.1;39.5
68873;BME280;55907;50.806;12.882;2022-11-15T13:07:58;968.1;;;19.0;39.9
68873;BME280;55907;50.806;12.882;2022-11-15T13:10:51;968.1;;;19.0;40.4
68873;BME280;55907;50.806;12.882;2022-11-15T13:13:52;968.1;;;19.0;40.2
68873;BME280;55907;50.806;12.882;2022-11-15T13:16:58;968.1;;;19.1;39.9
68873;BME280;55907;50.806;12.882;2022-11-15T13:20:07;968.1;;;19.1;40.5
68873;BME280;55907;50.806;12.882;2022-11-15T13:23:02;968.1;;;19.0;40.8
68873;BME280;55907;50.806;12.882;2022-11-15T13:26:06;968.1;;;19.1;41.2
68873;BME280;55907;50.806;12.882;2022-11-15T13:29:00;968.1;;;19.2;40.5
68873;BME280;55907;50.806;12.882;2022-11-15T13:32:01;968.1;;;19.2;40.4
68873;BME280;55907;50.806;12.882;2022-11-15T13:35:06;968.0;;;19.0;40.5
68873;BME280;55907;50.806;12.882;2022-11-15T13:38:04;968.0;;;19.0;40.4
68873;BME280;55907;50.806;12.882;2022-11-15T13:41:17;967.9;;;18.8;40.9
68873;BME280;55907;50.806;12.882;2022-11-15T13:44:18;968.0;;;18.7;41.1
68873;BME280;55907;50.806;12.882;2022-11-15T13:47:15;968.0;;;18.5;41.2
68873;BME280;55907;50.806;12.882;2022-11-15T13:50:10;967.9;;;18.5;41.3
68873;BME280;55907;50.806;12.882;2022-11-15T13:53:10;967.9;;;18.5;41.4
68873;BME280;55907;50.806;12.882;2022-11-15T13:56:12;967.9;;;18.4;41.6
68873;BME280;55907;50.806;12.882;2022-11-15T13:59:18;967.9;;;18.4;41.6
68873;BME280;55907;50.806;12.882;2022-11-15T14:02:17;967.8;;;18.2;42.1
68873;BME280;55907;50.806;12.882;2022-11-15T14:05:18;967.8;;;18.1;42.1
68873;BME280;55907;50.806;12.882;2022-11-15T14:08:23;967.8;;;18.0;42.4
68873;BME280;55907;50.806;12.882;2022-11-15T14:11:19;967.8;;;17.9;42.5
68873;BME280;55907;50.806;12.882;2022-11-15T14:14:22;967.7;;;17.7;42.9
68873;BME280;55907;50.806;12.882;2022-11-15T14:17:34;967.7;;;17.5;43.2
68873;BME280;55907;50.806;12.882;2022-11-15T14:20:30;967.6;;;17.3;43.6
68873;BME280;55907;50.806;12.882;2022-11-15T14:23:26;967.6;;;17.2;43.8
68873;BME280;55907;50.806;12.882;2022-11-15T14:26:29;967.6;;;17.2;44.0
68873;BME280;55907;50.806;12.882;2022-11-15T14:29:28;967.5;;;17.0;44.3
68873;BME280;55907;50.806;12.882;2022-11-15T14:32:30;967.5;;;16.9;44.7
68873;BME280;55907;50.806;12.882;2022-11-15T14:35:30;967.5;;;16.8;45.2
68873;BME280;55907;50.806;12.882;2022-11-15T14:38:32;967.6;;;16.7;45.5
68873;BME280;55907;50.806;12.882;2022-11-15T14:41:34;967.5;;;16.5;46.0
68873;BME280;55907;50.806;12.882;2022-11-15T14:44:34;967.5;;;16.3;46.9
68873;BME280;55907;50.806;12.882;2022-11-15T14:47:36;967.4;;;16.1;47.1
68873;BME280;55907;50.806;12.882;2022-11-15T14:50:37;967.4;;;16.0;48.0
68873;BME280;55907;50.806;12.882;2022-11-15T14:53:39;967.3;;;15.9;48.4
68873;BME280;55907;50.806;12.882;2022-11-15T14:56:40;967.3;;;15.7;49.1
68873;BME280;55907;50.806;12.882;2022-11-15T14:59:42;967.2;;;15.5;49.7
68873;BME280;55907;50.806;12.882;2022-11-15T15:02:45;967.2;;;15.4;50.0
68873;BME280;55907;50.806;12.882;2022-11-15T15:05:44;967.2;;;15.2;51.1
68873;BME280;55907;50.806;12.882;2022-11-15T15:08:46;967.1;;;15.1;51.3
68873;BME280;55907;50.806;12.882;2022-11-15T15:11:47;967.1;;;15.0;51.8
68873;BME280;55907;50.806;12.882;2022-11-15T15:14:50;967.1;;;14.8;51.7
68873;BME280;55907;50.806;12.882;2022-11-15T15:17:50;967.1;;;14.7;52.7
68873;BME280;55907;50.806;12.882;2022-11-15T15:20:55;967.1;;;14.6;53.0
68873;BME280;55907;50.806;12.882;2022-11-15T15:23:53;967.1;;;14.5;53.1
68873;BME280;55907;50.806;12.882;2022-11-15T15:26:55;967.1;;;14.3;53.9
68873;BME280;55907;50.806;12.882;2022-11-15T15:29:56;967.1;;;14.2;54.1
68873;BME280;55907;50.806;12.882;2022-11-15T15:32:58;967.1;;;14.1;54.1
68873;BME280;55907;50.806;12.882;2022-11-15T15:35:59;967.1;;;13.9;54.5
68873;BME280;55907;50.806;12.882;2022-11-15T15:39:00;967.0;;;13.8;54.5
68873;BME280;55907;50.806;12.882;2022-11-15T15:42:02;967.0;;;13.7;54.7
68873;BME280;55907;50.806;12.882;2022-11-15T15:48:05;967.0;;;13.5;55.0
68873;BME280;55907;50.806;12.882;2022-11-15T15:51:06;966.9;;;13.3;55.8
68873;BME280;55907;50.806;12.882;2022-11-15T15:54:08;966.9;;;13.2;55.5
68873;BME280;55907;50.806;12.882;2022-11-15T15:57:11;966.9;;;13.1;56.1
68873;BME280;55907;50.806;12.882;2022-11-15T16:00:11;966.8;;;13.0;56.1
68873;BME280;55907;50.806;12.882;2022-11-15T16:03:12;966.8;;;12.9;56.8
68873;BME280;55907;50.806;12.882;2022-11-15T16:09:17;966.7;;;12.8;57.2
68873;BME280;55907;50.806;12.882;2022-11-15T16:12:17;966.7;;;12.7;57.5
68873;BME280;55907;50.806;12.882;2022-11-15T16:15:19;966.7;;;12.5;58.0
68873;BME280;55907;50.806;12.882;2022-11-15T16:18:20;966.7;;;12.4;58.2
68873;BME280;55907;50.806;12.882;2022-11-15T16:21:21;966.7;;;12.3;58.4
68873;BME280;55907;50.806;12.882;2022-11-15T16:24:23;966.7;;;12.2;58.8
68873;BME280;55907;50.806;12.882;2022-11-15T16:27:24;966.6;;;12.1;59.1
68873;BME280;55907;50.806;12.882;2022-11-15T16:30:25;966.5;;;12.1;59.2
68873;BME280;55907;50.806;12.882;2022-11-15T16:33:27;966.5;;;12.0;59.8
68873;BME280;55907;50.806;12.882;2022-11-15T16:36:31;966.6;;;11.9;60.0
68873;BME280;55907;50.806;12.882;2022-11-15T16:39:30;966.5;;;11.8;60.5
68873;BME280;55907;50.806;12.882;2022-11-15T16:42:31;966.5;;;11.7;60.6
68873;BME280;55907;50.806;12.882;2022-11-15T16:45:33;966.6;;;11.6;61.1
68873;BME280;55907;50.806;12.882;2022-11-15T16:48:34;966.6;;;11.5;61.4
68873;BME280;55907;50.806;12.882;2022-11-15T16:51:36;966.6;;;11.4;61.3
68873;BME280;55907;50.806;12.882;2022-11-15T16:54:37;966.6;;;11.4;61.4
68873;BME280;55907;50.806;12.882;2022-11-15T16:57:39;966.7;;;11.3;62.0
68873;BME280;55907;50.806;12.882;2022-11-15T17:00:40;966.7;;;11.3;62.4
68873;BME280;55907;50.806;12.882;2022-11-15T17:03:42;966.7;;;11.3;62.7
68873;BME280;55907;50.806;12.882;2022-11-15T17:06:45;966.6;;;11.3;62.8
68873;BME280;55907;50.806;12.882;2022-11-15T17:09:45;966.6;;;11.3;63.4
68873;BME280;55907;50.806;12.882;2022-11-15T17:12:47;966.6;;;11.2;63.1
68873;BME280;55907;50.806;12.882;2022-11-15T17:15:48;966.5;;;11.2;62.8
68873;BME280;55907;50.806;12.882;2022-11-15T17:18:50;966.5;;;11.1;63.7
68873;BME280;55907;50.806;12.882;2022-11-15T17:21:51;966.5;;;11.1;63.9
68873;BME280;55907;50.806;12.882;2022-11-15T17:24:52;966.4;;;11.0;64.2
68873;BME280;55907;50.806;12.882;2022-11-15T17:27:55;966.4;;;10.9;63.1
68873;BME280;55907;50.806;12.882;2022-11-15T17:30:55;966.4;;;10.8;64.2
68873;BME280;55907;50.806;12.882;2022-11-15T17:33:57;966.4;;;10.6;64.0
68873;BME280;55907;50.806;12.882;2022-11-15T17:36:58;966.5;;;10.5;64.2
68873;BME280;55907;50.806;12.882;2022-11-15T17:40:00;966.4;;;10.4;64.9